sensor_id;sensor_type;location;lat;lon;timestamp;P1;durP1;ratioP1;P2;durP2;ratioP2
43580;SDS011;29175;51.030;4.606;2022-12-20T00:00:02;5.43;;;2.90;;
43580;SDS011;29175;51.030;4.606;2022-12-20T00:02:29;8.23;;;2.95;;
43580;SDS011;29175;51.030;4.606;2022-12-20T00:04:54;5.97;;;2.72;;
43580;SDS011;29175;51.030;4.606;2022-12-20T00:07:20;7.68;;;2.97;;
43580;SDS011;29175;51.030;4.606;2022-12-20T00:09:46;4.93;;;3.20;;
43580;SDS011;29175;51.030;4.606;2022-12-20T00:12:11;5.32;;;3.00;;
43580;SDS011;29175;51.030;4.606;2022-12-20T00:14:37;5.72;;;2.60;;
43580;SDS011;29175;51.030;4.606;2022-12-20T00:17:03;6.32;;;2.97;;
43580;SDS011;29175;51.030;4.606;2022-12-20T00:19:28;4.45;;;2.85;;
43580;SDS011;29175;51.030;4.606;2022-12-20T00:21:54;6.68;;;3.28;;
43580;SDS011;29175;51.030;4.606;2022-12-20T00:24:20;4.30;;;2.60;;
43580;SDS011;29175;51.030;4.606;2022-12-20T00:26:45;9.55;;;3.25;;
43580;SDS011;29175;51.030;4.606;2022-12-20T00:29:12;5.78;;;3.00;;
43580;SDS011;29175;51.030;4.606;2022-12-20T00:31:38;5.43;;;3.00;;
43580;SDS011;29175;51.030;4.606;2022-12-20T00:34:04;7.78;;;3.22;;
43580;SDS011;29175;51.030;4.606;2022-12-20T00:36:30;5.07;;;2.53;;
43580;SDS011;29175;51.030;4.606;2022-12-20T00:38:58;4.75;;;3.22;;
43580;SDS011;29175;51.030;4.606;2022-12-20T00:41:28;4.55;;;3.03;;
43580;SDS011;29175;51.030;4.606;2022-12-20T00:43:56;5.07;;;3.33;;
43580;SDS011;29175;51.030;4.606;2022-12-20T00:46:22;8.75;;;3.63;;
43580;SDS011;29175;51.030;4.606;2022-12-20T00:48:48;5.55;;;3.15;;
43580;SDS011;29175;51.030;4.606;2022-12-20T00:51:18;6.97;;;3.05;;
43580;SDS011;29175;51.030;4.606;2022-12-20T00:53:45;6.47;;;3.17;;
43580;SDS011;29175;51.030;4.606;2022-12-20T00:56:11;5.97;;;3.22;;
43580;SDS011;29175;51.030;4.606;2022-12-20T00:58:39;8.48;;;3.20;;
43580;SDS011;29175;51.030;4.606;2022-12-20T01:01:13;6.47;;;3.05;;
43580;SDS011;29175;51.030;4.606;2022-12-20T01:03:45;8.02;;;3.10;;
43580;SDS011;29175;51.030;4.606;2022-12-20T01:06:11;4.47;;;3.05;;
43580;SDS011;29175;51.030;4.606;2022-12-20T01:08:37;10.75;;;3.45;;
43580;SDS011;29175;51.030;4.606;2022-12-20T01:13:29;5.55;;;3.10;;
43580;SDS011;29175;51.030;4.606;2022-12-20T01:15:56;4.95;;;3.17;;
43580;SDS011;29175;51.030;4.606;2022-12-20T01:18:28;6.13;;;3.10;;
43580;SDS011;29175;51.030;4.606;2022-12-20T01:21:03;5.53;;;3.30;;
43580;SDS011;29175;51.030;4.606;2022-12-20T01:23:33;6.32;;;3.08;;
43580;SDS011;29175;51.030;4.606;2022-12-20T01:26:00;6.07;;;3.00;;
43580;SDS011;29175;51.030;4.606;2022-12-20T01:28:28;5.30;;;2.73;;
43580;SDS011;29175;51.030;4.606;2022-12-20T01:30:54;5.97;;;2.92;;
43580;SDS011;29175;51.030;4.606;2022-12-20T01:33:20;5.32;;;2.80;;
43580;SDS011;29175;51.030;4.606;2022-12-20T01:35:59;5.70;;;3.00;;
43580;SDS011;29175;51.030;4.606;2022-12-20T01:38:30;8.68;;;3.70;;
43580;SDS011;29175;51.030;4.606;2022-12-20T01:40:56;7.93;;;3.20;;
43580;SDS011;29175;51.030;4.606;2022-12-20T01:43:24;7.32;;;3.25;;
43580;SDS011;29175;51.030;4.606;2022-12-20T01:46:08;7.07;;;2.70;;
43580;SDS011;29175;51.030;4.606;2022-12-20T01:48:33;7.28;;;3.60;;
43580;SDS011;29175;51.030;4.606;2022-12-20T01:50:59;10.25;;;3.05;;
43580;SDS011;29175;51.030;4.606;2022-12-20T01:53:25;10.05;;;3.30;;
43580;SDS011;29175;51.030;4.606;2022-12-20T01:55:51;9.00;;;3.22;;
43580;SDS011;29175;51.030;4.606;2022-12-20T01:58:17;4.97;;;2.78;;
43580;SDS011;29175;51.030;4.606;2022-12-20T02:00:45;6.22;;;3.15;;
43580;SDS011;29175;51.030;4.606;2022-12-20T02:03:11;5.75;;;2.65;;
43580;SDS011;29175;51.030;4.606;2022-12-20T02:05:40;8.63;;;3.22;;
43580;SDS011;29175;51.030;4.606;2022-12-20T02:08:09;5.63;;;3.33;;
43580;SDS011;29175;51.030;4.606;2022-12-20T02:11:15;7.82;;;3.47;;
43580;SDS011;29175;51.030;4.606;2022-12-20T02:16:21;8.65;;;3.08;;
43580;SDS011;29175;51.030;4.606;2022-12-20T02:22:06;6.43;;;3.33;;
43580;SDS011;29175;51.030;4.606;2022-12-20T02:25:28;7.60;;;3.63;;
43580;SDS011;29175;51.030;4.606;2022-12-20T02:27:51;7.38;;;3.53;;
43580;SDS011;29175;51.030;4.606;2022-12-20T02:30:38;7.63;;;3.22;;
43580;SDS011;29175;51.030;4.606;2022-12-20T02:33:07;7.97;;;3.08;;
43580;SDS011;29175;51.030;4.606;2022-12-20T02:35:36;7.55;;;3.20;;
43580;SDS011;29175;51.030;4.606;2022-12-20T02:38:23;7.20;;;3.17;;
43580;SDS011;29175;51.030;4.606;2022-12-20T02:41:14;8.40;;;3.20;;
43580;SDS011;29175;51.030;4.606;2022-12-20T02:43:48;7.20;;;3.28;;
43580;SDS011;29175;51.030;4.606;2022-12-20T02:46:36;7.38;;;3.38;;
43580;SDS011;29175;51.030;4.606;2022-12-20T02:49:06;4.65;;;2.72;;
43580;SDS011;29175;51.030;4.606;2022-12-20T02:51:43;6.25;;;2.90;;
43580;SDS011;29175;51.030;4.606;2022-12-20T02:54:12;7.85;;;3.38;;
43580;SDS011;29175;51.030;4.606;2022-12-20T02:56:48;4.95;;;2.92;;
43580;SDS011;29175;51.030;4.606;2022-12-20T02:59:17;6.32;;;2.78;;
43580;SDS011;29175;51.030;4.606;2022-12-20T03:01:48;5.63;;;3.05;;
43580;SDS011;29175;51.030;4.606;2022-12-20T03:04:17;4.72;;;3.17;;
43580;SDS011;29175;51.030;4.606;2022-12-20T03:07:02;5.50;;;3.20;;
43580;SDS011;29175;51.030;4.606;2022-12-20T03:09:33;5.13;;;2.83;;
43580;SDS011;29175;51.030;4.606;2022-12-20T03:12:01;6.63;;;2.70;;
43580;SDS011;29175;51.030;4.606;2022-12-20T03:14:27;4.47;;;2.75;;
43580;SDS011;29175;51.030;4.606;2022-12-20T03:16:53;6.30;;;2.53;;
43580;SDS011;29175;51.030;4.606;2022-12-20T03:19:19;6.20;;;2.80;;
43580;SDS011;29175;51.030;4.606;2022-12-20T03:21:44;5.75;;;3.17;;
43580;SDS011;29175;51.030;4.606;2022-12-20T03:24:10;4.88;;;2.60;;
43580;SDS011;29175;51.030;4.606;2022-12-20T03:26:37;6.70;;;2.42;;
43580;SDS011;29175;51.030;4.606;2022-12-20T03:29:04;14.00;;;2.65;;
43580;SDS011;29175;51.030;4.606;2022-12-20T03:31:31;3.63;;;2.72;;
43580;SDS011;29175;51.030;4.606;2022-12-20T03:33:57;6.80;;;2.47;;
43580;SDS011;29175;51.030;4.606;2022-12-20T03:36:23;6.22;;;2.47;;
43580;SDS011;29175;51.030;4.606;2022-12-20T03:38:49;8.65;;;2.80;;
43580;SDS011;29175;51.030;4.606;2022-12-20T03:41:16;5.90;;;2.58;;
43580;SDS011;29175;51.030;4.606;2022-12-20T03:43:41;3.53;;;2.47;;
43580;SDS011;29175;51.030;4.606;2022-12-20T03:46:07;7.22;;;3.33;;
43580;SDS011;29175;51.030;4.606;2022-12-20T03:48:33;4.38;;;2.65;;
43580;SDS011;29175;51.030;4.606;2022-12-20T03:50:59;5.65;;;2.80;;
43580;SDS011;29175;51.030;4.606;2022-12-20T03:53:24;4.60;;;2.40;;
43580;SDS011;29175;51.030;4.606;2022-12-20T03:55:50;4.43;;;2.50;;
43580;SDS011;29175;51.030;4.606;2022-12-20T03:58:15;5.18;;;2.90;;
43580;SDS011;29175;51.030;4.606;2022-12-20T04:00:41;7.72;;;2.90;;
43580;SDS011;29175;51.030;4.606;2022-12-20T04:03:07;6.55;;;3.13;;
43580;SDS011;29175;51.030;4.606;2022-12-20T04:05:32;8.98;;;2.90;;
43580;SDS011;29175;51.030;4.606;2022-12-20T04:07:58;6.78;;;3.10;;
43580;SDS011;29175;51.030;4.606;2022-12-20T04:10:24;10.27;;;3.17;;
43580;SDS011;29175;51.030;4.606;2022-12-20T04:12:50;6.43;;;2.95;;
43580;SDS011;29175;51.030;4.606;2022-12-20T04:15:16;6.22;;;2.45;;
43580;SDS011;29175;51.030;4.606;2022-12-20T04:17:41;10.05;;;3.28;;
43580;SDS011;29175;51.030;4.606;2022-12-20T04:20:08;9.93;;;2.85;;
43580;SDS011;29175;51.030;4.606;2022-12-20T04:22:47;5.85;;;3.00;;
43580;SDS011;29175;51.030;4.606;2022-12-20T04:25:14;8.02;;;3.28;;
43580;SDS011;29175;51.030;4.606;2022-12-20T04:27:41;5.28;;;2.67;;
43580;SDS011;29175;51.030;4.606;2022-12-20T04:30:07;7.93;;;2.90;;
43580;SDS011;29175;51.030;4.606;2022-12-20T04:32:34;5.03;;;2.50;;
43580;SDS011;29175;51.030;4.606;2022-12-20T04:34:59;6.30;;;2.70;;
43580;SDS011;29175;51.030;4.606;2022-12-20T04:37:27;6.13;;;2.83;;
43580;SDS011;29175;51.030;4.606;2022-12-20T04:39:53;10.50;;;2.83;;
43580;SDS011;29175;51.030;4.606;2022-12-20T04:42:19;4.78;;;2.85;;
43580;SDS011;29175;51.030;4.606;2022-12-20T04:44:46;4.63;;;2.45;;
43580;SDS011;29175;51.030;4.606;2022-12-20T04:47:11;4.63;;;2.42;;
43580;SDS011;29175;51.030;4.606;2022-12-20T04:49:37;4.80;;;2.65;;
43580;SDS011;29175;51.030;4.606;2022-12-20T04:52:03;6.72;;;2.70;;
43580;SDS011;29175;51.030;4.606;2022-12-20T04:54:47;4.97;;;2.55;;
43580;SDS011;29175;51.030;4.606;2022-12-20T04:57:13;5.68;;;3.33;;
43580;SDS011;29175;51.030;4.606;2022-12-20T04:59:38;4.13;;;2.50;;
43580;SDS011;29175;51.030;4.606;2022-12-20T05:02:04;7.05;;;2.58;;
43580;SDS011;29175;51.030;4.606;2022-12-20T05:04:30;7.07;;;2.75;;
43580;SDS011;29175;51.030;4.606;2022-12-20T05:06:56;5.60;;;2.55;;
43580;SDS011;29175;51.030;4.606;2022-12-20T05:09:22;5.18;;;2.33;;
43580;SDS011;29175;51.030;4.606;2022-12-20T05:11:49;7.55;;;2.65;;
43580;SDS011;29175;51.030;4.606;2022-12-20T05:14:16;3.33;;;2.22;;
43580;SDS011;29175;51.030;4.606;2022-12-20T05:16:42;6.57;;;2.45;;
43580;SDS011;29175;51.030;4.606;2022-12-20T05:21:36;4.47;;;2.72;;
43580;SDS011;29175;51.030;4.606;2022-12-20T05:24:21;5.65;;;2.53;;
43580;SDS011;29175;51.030;4.606;2022-12-20T05:27:05;6.07;;;2.25;;
43580;SDS011;29175;51.030;4.606;2022-12-20T05:29:31;5.55;;;2.70;;
43580;SDS011;29175;51.030;4.606;2022-12-20T05:31:57;11.43;;;3.35;;
43580;SDS011;29175;51.030;4.606;2022-12-20T05:34:23;6.63;;;2.65;;
43580;SDS011;29175;51.030;4.606;2022-12-20T05:36:48;7.00;;;2.28;;
43580;SDS011;29175;51.030;4.606;2022-12-20T05:39:14;7.30;;;2.67;;
43580;SDS011;29175;51.030;4.606;2022-12-20T05:41:41;5.35;;;2.70;;
43580;SDS011;29175;51.030;4.606;2022-12-20T05:44:07;7.65;;;2.30;;
43580;SDS011;29175;51.030;4.606;2022-12-20T05:46:33;4.88;;;2.92;;
43580;SDS011;29175;51.030;4.606;2022-12-20T05:48:58;6.85;;;2.47;;
43580;SDS011;29175;51.030;4.606;2022-12-20T05:51:25;3.95;;;2.70;;
43580;SDS011;29175;51.030;4.606;2022-12-20T05:53:51;5.60;;;2.53;;
43580;SDS011;29175;51.030;4.606;2022-12-20T05:56:16;8.30;;;2.65;;
43580;SDS011;29175;51.030;4.606;2022-12-20T05:58:42;4.07;;;2.75;;
43580;SDS011;29175;51.030;4.606;2022-12-20T06:01:08;4.93;;;2.70;;
43580;SDS011;29175;51.030;4.606;2022-12-20T06:03:36;7.15;;;2.50;;
43580;SDS011;29175;51.030;4.606;2022-12-20T06:06:02;5.20;;;2.65;;
43580;SDS011;29175;51.030;4.606;2022-12-20T06:08:28;5.10;;;2.70;;
43580;SDS011;29175;51.030;4.606;2022-12-20T06:10:54;6.25;;;2.60;;
43580;SDS011;29175;51.030;4.606;2022-12-20T06:13:20;5.93;;;2.17;;
43580;SDS011;29175;51.030;4.606;2022-12-20T06:15:46;4.47;;;2.08;;
43580;SDS011;29175;51.030;4.606;2022-12-20T06:18:12;5.13;;;2.40;;
43580;SDS011;29175;51.030;4.606;2022-12-20T06:20:38;5.53;;;2.20;;
43580;SDS011;29175;51.030;4.606;2022-12-20T06:23:04;4.90;;;2.47;;
43580;SDS011;29175;51.030;4.606;2022-12-20T06:25:31;5.22;;;2.20;;
43580;SDS011;29175;51.030;4.606;2022-12-20T06:27:57;3.75;;;2.17;;
43580;SDS011;29175;51.030;4.606;2022-12-20T06:30:22;5.43;;;2.10;;
43580;SDS011;29175;51.030;4.606;2022-12-20T06:32:49;6.32;;;2.72;;
43580;SDS011;29175;51.030;4.606;2022-12-20T06:35:16;7.18;;;2.20;;
43580;SDS011;29175;51.030;4.606;2022-12-20T06:37:42;5.40;;;2.72;;
43580;SDS011;29175;51.030;4.606;2022-12-20T06:40:08;4.03;;;2.40;;
43580;SDS011;29175;51.030;4.606;2022-12-20T06:42:36;8.60;;;2.40;;
43580;SDS011;29175;51.030;4.606;2022-12-20T06:45:03;7.95;;;2.40;;
43580;SDS011;29175;51.030;4.606;2022-12-20T06:47:29;5.40;;;2.50;;
43580;SDS011;29175;51.030;4.606;2022-12-20T06:49:55;4.28;;;2.22;;
43580;SDS011;29175;51.030;4.606;2022-12-20T06:52:21;5.63;;;2.47;;
43580;SDS011;29175;51.030;4.606;2022-12-20T06:54:47;6.22;;;2.45;;
43580;SDS011;29175;51.030;4.606;2022-12-20T06:57:12;7.78;;;2.47;;
43580;SDS011;29175;51.030;4.606;2022-12-20T06:59:38;4.00;;;2.05;;
43580;SDS011;29175;51.030;4.606;2022-12-20T07:02:04;4.20;;;2.13;;
43580;SDS011;29175;51.030;4.606;2022-12-20T07:04:34;7.20;;;2.30;;
43580;SDS011;29175;51.030;4.606;2022-12-20T07:07:02;6.70;;;2.40;;
43580;SDS011;29175;51.030;4.606;2022-12-20T07:09:28;5.88;;;2.10;;
43580;SDS011;29175;51.030;4.606;2022-12-20T07:11:54;4.25;;;2.03;;
43580;SDS011;29175;51.030;4.606;2022-12-20T07:14:20;6.32;;;2.00;;
43580;SDS011;29175;51.030;4.606;2022-12-20T07:16:47;6.20;;;2.17;;
43580;SDS011;29175;51.030;4.606;2022-12-20T07:19:13;6.30;;;2.92;;
43580;SDS011;29175;51.030;4.606;2022-12-20T07:21:39;3.47;;;2.00;;
43580;SDS011;29175;51.030;4.606;2022-12-20T07:24:05;6.55;;;2.50;;
43580;SDS011;29175;51.030;4.606;2022-12-20T07:26:32;6.53;;;2.45;;
43580;SDS011;29175;51.030;4.606;2022-12-20T07:28:58;6.78;;;2.30;;
43580;SDS011;29175;51.030;4.606;2022-12-20T07:31:24;5.90;;;2.38;;
43580;SDS011;29175;51.030;4.606;2022-12-20T07:33:49;5.35;;;2.10;;
43580;SDS011;29175;51.030;4.606;2022-12-20T07:36:15;5.15;;;2.40;;
43580;SDS011;29175;51.030;4.606;2022-12-20T07:38:41;5.00;;;2.35;;
43580;SDS011;29175;51.030;4.606;2022-12-20T07:41:07;3.95;;;2.42;;
43580;SDS011;29175;51.030;4.606;2022-12-20T07:43:34;5.75;;;2.40;;
43580;SDS011;29175;51.030;4.606;2022-12-20T07:46:00;6.85;;;2.47;;
43580;SDS011;29175;51.030;4.606;2022-12-20T07:48:27;5.35;;;2.35;;
43580;SDS011;29175;51.030;4.606;2022-12-20T07:50:54;7.85;;;2.85;;
43580;SDS011;29175;51.030;4.606;2022-12-20T07:53:24;5.00;;;2.65;;
43580;SDS011;29175;51.030;4.606;2022-12-20T07:55:52;6.55;;;3.15;;
43580;SDS011;29175;51.030;4.606;2022-12-20T07:58:19;9.75;;;2.72;;
43580;SDS011;29175;51.030;4.606;2022-12-20T08:00:46;9.77;;;3.15;;
43580;SDS011;29175;51.030;4.606;2022-12-20T08:03:22;7.05;;;2.92;;
43580;SDS011;29175;51.030;4.606;2022-12-20T08:05:55;8.30;;;2.95;;
43580;SDS011;29175;51.030;4.606;2022-12-20T08:08:24;5.80;;;2.78;;
43580;SDS011;29175;51.030;4.606;2022-12-20T08:10:50;6.13;;;2.60;;
43580;SDS011;29175;51.030;4.606;2022-12-20T08:13:16;9.73;;;2.90;;
43580;SDS011;29175;51.030;4.606;2022-12-20T08:15:42;5.10;;;2.47;;
43580;SDS011;29175;51.030;4.606;2022-12-20T08:18:08;6.85;;;2.58;;
43580;SDS011;29175;51.030;4.606;2022-12-20T08:20:34;12.93;;;3.22;;
43580;SDS011;29175;51.030;4.606;2022-12-20T08:23:01;12.57;;;2.78;;
43580;SDS011;29175;51.030;4.606;2022-12-20T08:25:28;5.13;;;2.40;;
43580;SDS011;29175;51.030;4.606;2022-12-20T08:27:53;5.13;;;2.70;;
43580;SDS011;29175;51.030;4.606;2022-12-20T08:30:19;7.60;;;3.05;;
43580;SDS011;29175;51.030;4.606;2022-12-20T08:32:45;6.97;;;3.03;;
43580;SDS011;29175;51.030;4.606;2022-12-20T08:35:11;11.05;;;3.53;;
43580;SDS011;29175;51.030;4.606;2022-12-20T08:37:37;10.93;;;3.10;;
43580;SDS011;29175;51.030;4.606;2022-12-20T08:40:03;9.50;;;3.00;;
43580;SDS011;29175;51.030;4.606;2022-12-20T08:42:29;5.10;;;3.30;;
43580;SDS011;29175;51.030;4.606;2022-12-20T08:44:57;7.53;;;2.95;;
43580;SDS011;29175;51.030;4.606;2022-12-20T08:47:23;7.15;;;3.47;;
43580;SDS011;29175;51.030;4.606;2022-12-20T08:49:49;7.13;;;3.22;;
43580;SDS011;29175;51.030;4.606;2022-12-20T08:52:14;4.32;;;2.97;;
43580;SDS011;29175;51.030;4.606;2022-12-20T08:54:40;6.78;;;2.88;;
43580;SDS011;29175;51.030;4.606;2022-12-20T08:57:06;10.32;;;3.15;;
43580;SDS011;29175;51.030;4.606;2022-12-20T08:59:32;12.88;;;2.72;;
43580;SDS011;29175;51.030;4.606;2022-12-20T09:01:58;5.80;;;2.72;;
43580;SDS011;29175;51.030;4.606;2022-12-20T09:04:24;10.82;;;2.85;;
43580;SDS011;29175;51.030;4.606;2022-12-20T09:06:49;4.15;;;2.58;;
43580;SDS011;29175;51.030;4.606;2022-12-20T09:09:15;4.40;;;2.58;;
43580;SDS011;29175;51.030;4.606;2022-12-20T09:11:41;7.43;;;2.90;;
43580;SDS011;29175;51.030;4.606;2022-12-20T09:14:07;6.65;;;3.00;;
43580;SDS011;29175;51.030;4.606;2022-12-20T09:16:33;5.80;;;2.50;;
43580;SDS011;29175;51.030;4.606;2022-12-20T09:19:00;8.80;;;2.72;;
43580;SDS011;29175;51.030;4.606;2022-12-20T09:21:27;7.72;;;3.00;;
43580;SDS011;29175;51.030;4.606;2022-12-20T09:23:54;11.02;;;2.90;;
43580;SDS011;29175;51.030;4.606;2022-12-20T09:26:20;6.07;;;2.78;;
43580;SDS011;29175;51.030;4.606;2022-12-20T09:28:47;3.60;;;2.40;;
43580;SDS011;29175;51.030;4.606;2022-12-20T09:31:14;4.60;;;2.70;;
43580;SDS011;29175;51.030;4.606;2022-12-20T09:33:42;5.35;;;2.60;;
43580;SDS011;29175;51.030;4.606;2022-12-20T09:36:12;5.78;;;2.78;;
43580;SDS011;29175;51.030;4.606;2022-12-20T09:38:39;4.13;;;2.72;;
43580;SDS011;29175;51.030;4.606;2022-12-20T09:41:06;10.18;;;2.75;;
43580;SDS011;29175;51.030;4.606;2022-12-20T09:43:40;4.53;;;2.80;;
43580;SDS011;29175;51.030;4.606;2022-12-20T09:46:06;5.70;;;3.20;;
43580;SDS011;29175;51.030;4.606;2022-12-20T09:48:36;3.38;;;2.58;;
43580;SDS011;29175;51.030;4.606;2022-12-20T09:59:09;6.00;;;2.63;;
43580;SDS011;29175;51.030;4.606;2022-12-20T10:01:38;6.35;;;3.10;;
43580;SDS011;29175;51.030;4.606;2022-12-20T10:04:18;5.60;;;2.80;;
43580;SDS011;29175;51.030;4.606;2022-12-20T10:09:25;9.27;;;3.90;;
43580;SDS011;29175;51.030;4.606;2022-12-20T10:15:03;5.70;;;2.95;;
43580;SDS011;29175;51.030;4.606;2022-12-20T10:20:39;10.43;;;3.63;;
43580;SDS011;29175;51.030;4.606;2022-12-20T10:23:21;6.70;;;2.72;;
43580;SDS011;29175;51.030;4.606;2022-12-20T10:26:10;4.53;;;2.85;;
43580;SDS011;29175;51.030;4.606;2022-12-20T10:28:37;6.30;;;3.17;;
43580;SDS011;29175;51.030;4.606;2022-12-20T10:31:14;4.80;;;2.95;;
43580;SDS011;29175;51.030;4.606;2022-12-20T10:33:41;6.82;;;3.17;;
43580;SDS011;29175;51.030;4.606;2022-12-20T10:36:18;7.10;;;3.45;;
43580;SDS011;29175;51.030;4.606;2022-12-20T10:38:56;8.45;;;3.47;;
43580;SDS011;29175;51.030;4.606;2022-12-20T10:41:24;6.15;;;3.15;;
43580;SDS011;29175;51.030;4.606;2022-12-20T10:43:59;7.28;;;3.03;;
43580;SDS011;29175;51.030;4.606;2022-12-20T10:46:36;5.18;;;2.78;;
43580;SDS011;29175;51.030;4.606;2022-12-20T10:49:19;10.27;;;3.30;;
43580;SDS011;29175;51.030;4.606;2022-12-20T10:51:52;6.00;;;3.03;;
43580;SDS011;29175;51.030;4.606;2022-12-20T10:56:57;5.82;;;2.70;;
43580;SDS011;29175;51.030;4.606;2022-12-20T10:59:30;5.80;;;2.95;;
43580;SDS011;29175;51.030;4.606;2022-12-20T11:02:08;10.07;;;3.53;;
43580;SDS011;29175;51.030;4.606;2022-12-20T11:04:56;8.98;;;3.60;;
43580;SDS011;29175;51.030;4.606;2022-12-20T11:07:32;19.55;;;4.95;;
43580;SDS011;29175;51.030;4.606;2022-12-20T11:10:01;6.90;;;3.40;;
43580;SDS011;29175;51.030;4.606;2022-12-20T11:12:54;7.65;;;3.53;;
43580;SDS011;29175;51.030;4.606;2022-12-20T11:15:25;5.60;;;3.13;;
43580;SDS011;29175;51.030;4.606;2022-12-20T11:21:11;9.15;;;3.60;;
43580;SDS011;29175;51.030;4.606;2022-12-20T11:27:22;12.90;;;5.30;;
43580;SDS011;29175;51.030;4.606;2022-12-20T11:32:56;8.82;;;4.82;;
43580;SDS011;29175;51.030;4.606;2022-12-20T11:41:09;9.77;;;4.22;;
43580;SDS011;29175;51.030;4.606;2022-12-20T11:49:14;11.48;;;4.43;;
43580;SDS011;29175;51.030;4.606;2022-12-20T11:52:03;10.38;;;3.63;;
43580;SDS011;29175;51.030;4.606;2022-12-20T11:54:41;7.82;;;3.80;;
43580;SDS011;29175;51.030;4.606;2022-12-20T11:57:12;25.90;;;8.13;;
43580;SDS011;29175;51.030;4.606;2022-12-20T12:02:26;10.15;;;4.40;;
43580;SDS011;29175;51.030;4.606;2022-12-20T12:07:44;8.70;;;4.57;;
43580;SDS011;29175;51.030;4.606;2022-12-20T12:10:16;8.40;;;4.28;;
43580;SDS011;29175;51.030;4.606;2022-12-20T12:15:27;12.60;;;4.97;;
43580;SDS011;29175;51.030;4.606;2022-12-20T12:20:34;11.43;;;5.65;;
43580;SDS011;29175;51.030;4.606;2022-12-20T12:25:56;5.15;;;3.55;;
43580;SDS011;29175;51.030;4.606;2022-12-20T12:28:26;11.95;;;4.53;;
43580;SDS011;29175;51.030;4.606;2022-12-20T12:30:55;10.93;;;4.50;;
43580;SDS011;29175;51.030;4.606;2022-12-20T12:33:29;8.98;;;4.60;;
43580;SDS011;29175;51.030;4.606;2022-12-20T12:46:57;9.55;;;3.92;;
43580;SDS011;29175;51.030;4.606;2022-12-20T12:49:26;9.85;;;4.63;;
43580;SDS011;29175;51.030;4.606;2022-12-20T12:51:56;17.13;;;4.65;;
43580;SDS011;29175;51.030;4.606;2022-12-20T12:54:25;10.35;;;3.97;;
43580;SDS011;29175;51.030;4.606;2022-12-20T12:57:27;10.38;;;4.10;;
43580;SDS011;29175;51.030;4.606;2022-12-20T12:59:46;11.05;;;4.22;;
43580;SDS011;29175;51.030;4.606;2022-12-20T13:12:58;12.35;;;5.30;;
43580;SDS011;29175;51.030;4.606;2022-12-20T13:20:26;18.27;;;7.22;;
43580;SDS011;29175;51.030;4.606;2022-12-20T13:25:33;11.13;;;4.85;;
43580;SDS011;29175;51.030;4.606;2022-12-20T13:30:44;13.60;;;5.05;;
43580;SDS011;29175;51.030;4.606;2022-12-20T13:33:21;16.42;;;6.63;;
43580;SDS011;29175;51.030;4.606;2022-12-20T13:35:56;23.73;;;8.50;;
43580;SDS011;29175;51.030;4.606;2022-12-20T13:46:42;10.77;;;5.43;;
43580;SDS011;29175;51.030;4.606;2022-12-20T13:49:25;11.95;;;5.18;;
43580;SDS011;29175;51.030;4.606;2022-12-20T13:54:46;10.45;;;4.53;;
43580;SDS011;29175;51.030;4.606;2022-12-20T13:57:19;8.02;;;4.18;;
43580;SDS011;29175;51.030;4.606;2022-12-20T14:00:04;14.02;;;5.53;;
43580;SDS011;29175;51.030;4.606;2022-12-20T14:02:39;13.85;;;7.03;;
43580;SDS011;29175;51.030;4.606;2022-12-20T14:05:16;13.32;;;5.85;;
43580;SDS011;29175;51.030;4.606;2022-12-20T14:08:13;10.93;;;4.55;;
43580;SDS011;29175;51.030;4.606;2022-12-20T14:10:46;14.43;;;5.22;;
43580;SDS011;29175;51.030;4.606;2022-12-20T14:13:30;10.35;;;5.45;;
43580;SDS011;29175;51.030;4.606;2022-12-20T14:15:56;10.15;;;4.68;;
43580;SDS011;29175;51.030;4.606;2022-12-20T14:18:34;9.40;;;5.00;;
43580;SDS011;29175;51.030;4.606;2022-12-20T14:21:01;13.27;;;6.03;;
43580;SDS011;29175;51.030;4.606;2022-12-20T14:26:06;10.02;;;5.30;;
43580;SDS011;29175;51.030;4.606;2022-12-20T14:28:47;17.30;;;5.25;;
43580;SDS011;29175;51.030;4.606;2022-12-20T14:31:36;12.23;;;5.78;;
43580;SDS011;29175;51.030;4.606;2022-12-20T14:36:42;12.00;;;5.78;;
43580;SDS011;29175;51.030;4.606;2022-12-20T14:39:29;12.65;;;6.18;;
43580;SDS011;29175;51.030;4.606;2022-12-20T14:41:59;12.43;;;5.78;;
43580;SDS011;29175;51.030;4.606;2022-12-20T14:44:26;9.82;;;5.38;;
43580;SDS011;29175;51.030;4.606;2022-12-20T14:46:57;14.25;;;5.40;;
43580;SDS011;29175;51.030;4.606;2022-12-20T14:49:39;14.25;;;5.07;;
43580;SDS011;29175;51.030;4.606;2022-12-20T14:52:13;14.45;;;5.20;;
43580;SDS011;29175;51.030;4.606;2022-12-20T15:13:31;11.90;;;5.50;;
43580;SDS011;29175;51.030;4.606;2022-12-20T15:16:19;10.30;;;5.45;;
43580;SDS011;29175;51.030;4.606;2022-12-20T15:18:46;9.48;;;4.93;;
43580;SDS011;29175;51.030;4.606;2022-12-20T15:21:21;12.20;;;6.15;;
43580;SDS011;29175;51.030;4.606;2022-12-20T15:23:54;13.45;;;6.82;;
43580;SDS011;29175;51.030;4.606;2022-12-20T15:26:23;18.58;;;6.03;;
43580;SDS011;29175;51.030;4.606;2022-12-20T15:28:49;12.80;;;7.07;;
43580;SDS011;29175;51.030;4.606;2022-12-20T15:31:17;13.32;;;5.68;;
43580;SDS011;29175;51.030;4.606;2022-12-20T15:33:45;11.85;;;5.60;;
43580;SDS011;29175;51.030;4.606;2022-12-20T15:36:20;15.18;;;6.97;;
43580;SDS011;29175;51.030;4.606;2022-12-20T15:38:47;12.35;;;7.13;;
43580;SDS011;29175;51.030;4.606;2022-12-20T15:41:16;12.10;;;6.22;;
43580;SDS011;29175;51.030;4.606;2022-12-20T15:43:51;19.38;;;7.60;;
43580;SDS011;29175;51.030;4.606;2022-12-20T15:46:20;17.42;;;7.65;;
43580;SDS011;29175;51.030;4.606;2022-12-20T15:48:46;9.57;;;6.43;;
43580;SDS011;29175;51.030;4.606;2022-12-20T15:51:16;14.40;;;6.55;;
43580;SDS011;29175;51.030;4.606;2022-12-20T15:53:48;12.45;;;5.65;;
43580;SDS011;29175;51.030;4.606;2022-12-20T15:56:18;12.02;;;6.32;;
43580;SDS011;29175;51.030;4.606;2022-12-20T15:58:46;14.95;;;5.93;;
43580;SDS011;29175;51.030;4.606;2022-12-20T16:01:19;10.02;;;5.57;;
43580;SDS011;29175;51.030;4.606;2022-12-20T16:03:49;11.05;;;5.70;;
43580;SDS011;29175;51.030;4.606;2022-12-20T16:06:15;11.88;;;5.80;;
43580;SDS011;29175;51.030;4.606;2022-12-20T16:08:41;12.63;;;5.80;;
43580;SDS011;29175;51.030;4.606;2022-12-20T16:11:13;10.75;;;6.07;;
43580;SDS011;29175;51.030;4.606;2022-12-20T16:13:46;13.95;;;5.72;;
43580;SDS011;29175;51.030;4.606;2022-12-20T16:16:16;11.70;;;5.43;;
43580;SDS011;29175;51.030;4.606;2022-12-20T16:18:43;10.43;;;5.55;;
43580;SDS011;29175;51.030;4.606;2022-12-20T16:21:13;12.77;;;6.05;;
43580;SDS011;29175;51.030;4.606;2022-12-20T16:23:42;14.45;;;7.25;;
43580;SDS011;29175;51.030;4.606;2022-12-20T16:26:13;12.95;;;6.28;;
43580;SDS011;29175;51.030;4.606;2022-12-20T16:28:40;10.98;;;5.50;;
43580;SDS011;29175;51.030;4.606;2022-12-20T16:33:56;12.32;;;6.07;;
43580;SDS011;29175;51.030;4.606;2022-12-20T16:36:23;12.32;;;5.70;;
43580;SDS011;29175;51.030;4.606;2022-12-20T16:38:49;12.70;;;6.15;;
43580;SDS011;29175;51.030;4.606;2022-12-20T16:41:17;11.13;;;6.10;;
43580;SDS011;29175;51.030;4.606;2022-12-20T16:43:48;13.45;;;6.82;;
43580;SDS011;29175;51.030;4.606;2022-12-20T16:46:18;12.88;;;5.93;;
43580;SDS011;29175;51.030;4.606;2022-12-20T16:48:45;9.38;;;5.47;;
43580;SDS011;29175;51.030;4.606;2022-12-20T16:51:22;8.55;;;5.55;;
43580;SDS011;29175;51.030;4.606;2022-12-20T16:53:49;11.65;;;6.20;;
43580;SDS011;29175;51.030;4.606;2022-12-20T16:56:15;9.90;;;5.85;;
43580;SDS011;29175;51.030;4.606;2022-12-20T16:58:41;11.57;;;5.68;;
43580;SDS011;29175;51.030;4.606;2022-12-20T17:01:12;11.93;;;5.53;;
43580;SDS011;29175;51.030;4.606;2022-12-20T17:03:44;11.98;;;6.70;;
43580;SDS011;29175;51.030;4.606;2022-12-20T17:06:13;14.95;;;6.70;;
43580;SDS011;29175;51.030;4.606;2022-12-20T17:08:41;14.25;;;6.45;;
43580;SDS011;29175;51.030;4.606;2022-12-20T17:13:42;11.75;;;6.22;;